createdAt,value
2017-09-04T00:00:39.925Z,81.2
2017-09-04T00:01:40.614Z,81.2
2017-09-04T00:02:41.297Z,81.6
2017-09-04T00:03:41.954Z,80.8
2017-09-04T00:04:42.640Z,81.3
2017-09-04T00:05:43.326Z,81.5
2017-09-04T00:06:43.980Z,82.4
2017-09-04T00:07:44.636Z,81.9
2017-09-04T00:08:45.292Z,82.5
2017-09-04T00:09:45.946Z,83.2
2017-09-04T00:10:46.603Z,82.0
2017-09-04T00:11:47.257Z,81.7
2017-09-04T00:12:47.915Z,82.1
2017-09-04T00:13:48.571Z,82.2
2017-09-04T00:14:49.224Z,82.3
2017-09-04T00:15:49.880Z,82.0
2017-09-04T00:16:50.540Z,82.3
2017-09-04T00:17:51.190Z,82.8
2017-09-04T00:18:51.848Z,82.7
2017-09-04T00:19:52.504Z,83.3
2017-09-04T00:20:53.156Z,83.7
2017-09-04T00:21:53.812Z,84.4
2017-09-04T00:22:54.469Z,83.9
2017-09-04T00:23:55.120Z,84.0
2017-09-04T00:24:55.775Z,83.3
2017-09-04T00:25:56.430Z,83.1
2017-09-04T00:26:57.086Z,82.9
2017-09-04T00:27:57.741Z,83.8
2017-09-04T00:28:58.394Z,83.7
2017-09-04T00:29:59.048Z,83.8
2017-09-04T00:30:59.707Z,84.0
2017-09-04T00:32:00.364Z,83.1
2017-09-04T00:33:01.021Z,82.8
2017-09-04T00:34:01.678Z,83.3
2017-09-04T00:35:02.366Z,82.8
2017-09-04T00:36:03.052Z,83.2
2017-09-04T00:37:03.708Z,83.1
2017-09-04T00:38:04.366Z,83.0
2017-09-04T00:39:05.021Z,83.2
2017-09-04T00:40:05.707Z,83.1
2017-09-04T00:41:06.368Z,82.2
2017-09-04T00:42:07.021Z,82.0
2017-09-04T00:43:07.681Z,81.9
2017-09-04T00:44:08.368Z,82.5
2017-09-04T00:45:09.023Z,83.2
2017-09-04T00:46:09.679Z,82.4
2017-09-04T00:47:10.337Z,82.9
2017-09-04T00:48:10.991Z,82.8
2017-09-04T00:49:11.648Z,83.1
2017-09-04T00:50:12.300Z,83.7
2017-09-04T00:51:12.958Z,83.2
2017-09-04T00:52:13.614Z,83.2
2017-09-04T00:53:14.274Z,82.9
2017-09-04T00:54:14.979Z,83.2
2017-09-04T00:55:15.607Z,83.2
2017-09-04T00:56:16.269Z,82.3
2017-09-04T00:57:16.927Z,81.6
2017-09-04T00:58:17.580Z,82.6
2017-09-04T00:59:18.270Z,82.9
2017-09-04T01:00:18.923Z,83.2
2017-09-04T01:01:19.577Z,83.4
2017-09-04T01:02:20.232Z,83.8
2017-09-04T01:03:20.886Z,83.7
2017-09-04T01:04:21.566Z,83.6
2017-09-04T01:05:22.195Z,84.3
2017-09-04T01:06:22.847Z,84.1
2017-09-04T01:07:23.516Z,84.3
2017-09-04T01:08:24.163Z,84.1
2017-09-04T01:09:24.851Z,84.4
2017-09-04T01:10:25.505Z,83.9
2017-09-04T01:11:26.159Z,83.8
2017-09-04T01:12:26.817Z,83.7
2017-09-04T01:13:27.474Z,84.0
2017-09-04T01:14:28.128Z,83.1
2017-09-04T01:15:28.786Z,82.5
2017-09-04T01:16:29.442Z,83.1
2017-09-04T01:17:30.127Z,82.7
2017-09-04T01:18:30.784Z,82.9
2017-09-04T01:19:31.437Z,83.2
2017-09-04T01:20:32.090Z,83.6
2017-09-04T01:21:32.752Z,83.9
2017-09-04T01:22:33.431Z,83.7
2017-09-04T01:23:34.090Z,83.6
2017-09-04T01:24:34.746Z,84.2
2017-09-04T01:25:35.433Z,84.3
2017-09-04T01:26:36.092Z,83.7
2017-09-04T01:27:36.747Z,83.9
2017-09-04T01:28:37.434Z,83.3
2017-09-04T01:29:38.125Z,83.4
2017-09-04T01:30:38.783Z,82.9
2017-09-04T01:31:39.469Z,83.1
2017-09-04T01:32:40.119Z,83.2
2017-09-04T01:33:40.779Z,83.2
2017-09-04T01:34:41.437Z,83.5
2017-09-04T01:35:42.093Z,83.0
2017-09-04T01:36:42.748Z,82.7
2017-09-04T01:37:43.440Z,83.1
2017-09-04T01:38:44.097Z,83.0
2017-09-04T01:39:44.747Z,82.9
2017-09-04T01:40:45.407Z,82.7
2017-09-04T01:41:46.059Z,83.0
2017-09-04T01:42:46.714Z,82.9
2017-09-04T01:43:47.368Z,82.9
2017-09-04T01:44:48.022Z,83.9
2017-09-04T01:45:48.708Z,83.5
2017-09-04T01:46:49.365Z,84.2
2017-09-04T01:47:50.019Z,84.6
2017-09-04T01:48:50.675Z,84.6
2017-09-04T01:49:51.332Z,84.2
2017-09-04T01:50:51.987Z,83.8
2017-09-04T01:51:52.641Z,83.7
2017-09-04T01:52:53.295Z,84.3
2017-09-04T01:53:53.949Z,84.1
2017-09-04T01:54:54.602Z,84.0
2017-09-04T01:55:55.254Z,84.6
2017-09-04T01:56:55.911Z,84.5
2017-09-04T01:57:56.570Z,84.6
2017-09-04T01:58:57.221Z,84.8
2017-09-04T01:59:57.876Z,84.4
2017-09-04T02:00:58.537Z,83.3
2017-09-04T02:01:59.188Z,83.1
2017-09-04T02:02:59.845Z,82.8
2017-09-04T02:04:00.504Z,82.1
2017-09-04T02:05:01.156Z,82.2
2017-09-04T02:06:01.812Z,82.0
2017-09-04T02:07:02.472Z,82.5
2017-09-04T02:08:03.125Z,82.4
2017-09-04T02:09:03.780Z,82.3
2017-09-04T02:10:04.438Z,82.3
2017-09-04T02:11:05.089Z,82.5
2017-09-04T02:12:05.753Z,81.9
2017-09-04T02:13:06.430Z,83.2
2017-09-04T02:14:07.114Z,82.4
2017-09-04T02:15:07.765Z,82.2
2017-09-04T02:16:08.422Z,81.6
2017-09-04T02:17:09.075Z,81.6
2017-09-04T02:18:09.731Z,81.5
2017-09-04T02:19:10.390Z,81.2
2017-09-04T02:20:11.075Z,82.0
2017-09-04T02:21:11.732Z,82.0
2017-09-04T02:22:12.386Z,82.3
2017-09-04T02:23:13.043Z,81.2
2017-09-04T02:24:13.724Z,81.6
2017-09-04T02:25:14.378Z,80.7
2017-09-04T02:26:15.037Z,79.6
2017-09-04T02:27:15.690Z,79.4
2017-09-04T02:28:16.350Z,78.6
2017-09-04T02:29:17.006Z,78.5
2017-09-04T02:30:17.690Z,77.5
2017-09-04T02:31:18.378Z,77.2
2017-09-04T02:32:19.030Z,76.4
2017-09-04T02:33:19.686Z,76.3
2017-09-04T02:34:20.341Z,76.8
2017-09-04T02:35:20.995Z,75.7
2017-09-04T02:36:21.645Z,76.7
2017-09-04T02:37:22.307Z,77.1
2017-09-04T02:38:22.960Z,76.8
2017-09-04T02:39:23.614Z,76.5
2017-09-04T02:40:24.268Z,76.6
2017-09-04T02:41:24.921Z,76.0
2017-09-04T02:42:25.573Z,75.3
2017-09-04T02:43:26.228Z,74.7
2017-09-04T02:44:26.885Z,74.9
2017-09-04T02:45:27.539Z,75.5
2017-09-04T02:46:28.196Z,76.2
2017-09-04T02:47:28.852Z,75.6
2017-09-04T02:48:29.508Z,75.8
2017-09-04T02:49:30.163Z,75.8
2017-09-04T02:50:30.815Z,75.8
2017-09-04T02:51:31.521Z,75.1
2017-09-04T02:52:32.211Z,75.2
2017-09-04T02:53:32.898Z,75.7
2017-09-04T02:54:33.549Z,76.6
2017-09-04T02:55:34.205Z,77.1
2017-09-04T02:56:34.859Z,77.1
2017-09-04T02:57:35.515Z,77.7
2017-09-04T02:58:36.169Z,78.0
2017-09-04T02:59:36.826Z,77.7
2017-09-04T03:00:37.480Z,77.8
2017-09-04T03:01:38.140Z,77.7
2017-09-04T03:02:38.789Z,78.4
2017-09-04T03:03:39.445Z,79.2
2017-09-04T03:04:40.096Z,78.6
2017-09-04T03:05:40.747Z,78.5
2017-09-04T03:06:41.409Z,79.6
2017-09-04T03:07:42.068Z,79.9
2017-09-04T03:08:42.751Z,79.7
2017-09-04T03:09:43.413Z,79.6
2017-09-04T03:10:44.066Z,79.6
2017-09-04T03:11:44.720Z,79.5
2017-09-04T03:12:45.377Z,80.2
2017-09-04T03:13:46.029Z,80.6
2017-09-04T03:14:59.428Z,81.2
2017-09-04T03:16:00.112Z,81.9
2017-09-04T03:17:00.768Z,82.2
2017-09-04T03:18:01.419Z,81.6
2017-09-04T03:19:02.077Z,82.0
2017-09-04T03:20:02.727Z,82.4
2017-09-04T03:21:03.382Z,82.9
2017-09-04T03:22:04.035Z,83.1
2017-09-04T03:23:04.687Z,83.2
2017-09-04T03:24:05.343Z,82.9
2017-09-04T03:25:06.002Z,83.0
2017-09-04T03:26:06.657Z,82.7
2017-09-04T03:27:07.312Z,82.2
2017-09-04T03:28:07.969Z,82.2
2017-09-04T03:29:08.618Z,82.0
2017-09-04T03:30:09.276Z,82.0
2017-09-04T03:31:09.926Z,81.1
2017-09-04T03:32:10.583Z,82.2
2017-09-04T03:33:11.237Z,82.0
2017-09-04T03:34:11.916Z,81.8
2017-09-04T03:35:12.547Z,81.7
2017-09-04T03:36:13.201Z,81.9
2017-09-04T03:37:13.858Z,81.5
2017-09-04T03:38:14.539Z,82.3
2017-09-04T03:39:15.196Z,81.5
2017-09-04T03:40:15.848Z,80.5
2017-09-04T03:41:16.503Z,80.1
2017-09-04T03:42:17.189Z,80.4
2017-09-04T03:43:17.869Z,81.2
2017-09-04T03:44:18.526Z,82.2
2017-09-04T03:45:19.180Z,81.8
2017-09-04T03:46:19.835Z,82.4
2017-09-04T03:47:20.526Z,82.0
2017-09-04T03:48:21.179Z,80.4
2017-09-04T03:49:21.833Z,80.2
2017-09-04T03:50:22.490Z,79.4
2017-09-04T03:51:23.144Z,79.5
2017-09-04T03:52:23.799Z,80.3
2017-09-04T03:53:24.449Z,79.6
2017-09-04T03:54:25.107Z,80.1
2017-09-04T03:55:25.760Z,80.0
2017-09-04T03:56:26.418Z,80.8
2017-09-04T03:57:27.073Z,80.8
2017-09-04T03:58:27.730Z,80.8
2017-09-04T03:59:28.416Z,81.0
2017-09-04T04:00:29.069Z,80.6
2017-09-04T04:01:29.727Z,80.4
2017-09-04T04:02:30.381Z,80.2
2017-09-04T04:03:31.038Z,80.1
2017-09-04T04:04:31.690Z,80.7
2017-09-04T04:05:32.341Z,80.7
2017-09-04T04:06:33.000Z,80.5
2017-09-04T04:07:33.659Z,80.5
2017-09-04T04:08:34.314Z,80.1
2017-09-04T04:09:34.971Z,79.2
2017-09-04T04:10:35.625Z,78.9
2017-09-04T04:11:36.282Z,79.3
2017-09-04T04:12:36.941Z,79.9
2017-09-04T04:13:37.596Z,80.4
2017-09-04T04:14:38.249Z,80.1
2017-09-04T04:15:38.934Z,80.0
2017-09-04T04:16:39.591Z,80.0
2017-09-04T04:17:40.248Z,80.8
2017-09-04T04:18:40.932Z,80.7
2017-09-04T04:19:41.619Z,81.3
2017-09-04T04:20:42.281Z,81.2
2017-09-04T04:21:42.933Z,81.7
2017-09-04T04:22:43.597Z,82.1
2017-09-04T04:23:44.248Z,81.5
2017-09-04T04:24:44.936Z,81.5
2017-09-04T04:25:45.595Z,81.5
2017-09-04T04:26:46.248Z,81.7
2017-09-04T04:27:46.904Z,81.0
2017-09-04T04:28:47.566Z,80.7
2017-09-04T04:29:48.225Z,80.8
2017-09-04T04:30:48.881Z,80.4
2017-09-04T04:31:49.536Z,80.9
2017-09-04T04:32:50.193Z,81.5
2017-09-04T04:33:50.852Z,81.9
2017-09-04T04:34:51.507Z,80.8
2017-09-04T04:35:52.194Z,79.8
2017-09-04T04:36:52.854Z,79.9
2017-09-04T04:37:53.511Z,80.4
2017-09-04T04:38:54.167Z,81.0
2017-09-04T04:39:54.827Z,81.8
2017-09-04T04:40:55.489Z,81.7
2017-09-04T04:41:56.140Z,81.7
2017-09-04T04:42:56.803Z,82.0
2017-09-04T04:43:57.462Z,82.1
2017-09-04T04:44:58.122Z,82.1
2017-09-04T04:45:58.777Z,82.3
2017-09-04T04:46:59.441Z,80.4
2017-09-04T04:48:00.099Z,79.8
2017-09-04T04:49:00.752Z,79.5
2017-09-04T04:50:01.416Z,79.7
2017-09-04T04:51:02.074Z,79.9
2017-09-04T04:52:02.759Z,79.7
2017-09-04T04:53:03.423Z,79.6
2017-09-04T04:54:04.074Z,79.7
2017-09-04T04:55:04.733Z,79.3
2017-09-04T04:56:05.394Z,78.7
2017-09-04T04:57:06.076Z,79.3
2017-09-04T04:58:06.719Z,78.7
2017-09-04T04:59:07.406Z,78.8
2017-09-04T05:00:08.064Z,78.8
2017-09-04T05:01:08.723Z,78.6
2017-09-04T05:02:09.382Z,78.7
2017-09-04T05:03:10.042Z,78.2
2017-09-04T05:04:10.703Z,78.8
2017-09-04T05:05:11.364Z,79.3
2017-09-04T05:06:12.027Z,78.3
2017-09-04T05:07:12.687Z,78.6
2017-09-04T05:08:13.376Z,78.0
2017-09-04T05:09:14.037Z,78.1
2017-09-04T05:10:14.699Z,78.4
2017-09-04T05:11:15.360Z,78.1
2017-09-04T05:12:16.022Z,78.7
2017-09-04T05:13:16.680Z,78.7
2017-09-04T05:14:17.343Z,78.7
2017-09-04T05:15:17.999Z,79.0
2017-09-04T05:16:18.661Z,78.7
2017-09-04T05:17:19.322Z,78.2
2017-09-04T05:18:19.984Z,78.3
2017-09-04T05:19:20.643Z,78.6
2017-09-04T05:20:21.305Z,77.8
2017-09-04T05:21:21.965Z,77.7
2017-09-04T05:22:22.626Z,77.6
2017-09-04T05:23:23.284Z,77.2
2017-09-04T05:24:23.945Z,76.7
2017-09-04T05:25:24.605Z,77.3
2017-09-04T05:26:25.265Z,77.5
2017-09-04T05:27:25.926Z,78.1
2017-09-04T05:28:26.587Z,78.2
2017-09-04T05:29:27.251Z,77.7
2017-09-04T05:30:27.943Z,78.1
2017-09-04T05:31:28.595Z,78.0
2017-09-04T05:32:29.253Z,78.3
2017-09-04T05:33:29.918Z,78.5
2017-09-04T05:34:30.578Z,77.7
2017-09-04T05:35:31.235Z,77.5
2017-09-04T05:36:31.900Z,77.0
2017-09-04T05:37:32.557Z,76.1
2017-09-04T05:38:33.219Z,76.7
2017-09-04T05:39:33.911Z,77.6
2017-09-04T05:40:34.572Z,78.2
2017-09-04T05:41:35.227Z,77.4
2017-09-04T05:42:35.891Z,75.8
2017-09-04T05:43:36.554Z,75.6
2017-09-04T05:44:37.214Z,74.9
2017-09-04T05:45:37.871Z,75.2
2017-09-04T05:46:38.531Z,75.4
2017-09-04T05:47:39.195Z,75.5
2017-09-04T05:48:39.855Z,75.5
2017-09-04T05:49:40.517Z,75.4
2017-09-04T05:50:41.176Z,76.0
2017-09-04T05:51:41.841Z,75.7
2017-09-04T05:52:42.493Z,75.2
2017-09-04T05:53:43.155Z,75.4
2017-09-04T05:54:43.820Z,75.6
2017-09-04T05:55:44.483Z,75.4
2017-09-04T05:56:45.141Z,74.6
2017-09-04T05:57:45.805Z,74.3
2017-09-04T05:58:46.467Z,74.7
2017-09-04T05:59:47.128Z,75.3
2017-09-04T06:00:47.789Z,75.2
2017-09-04T06:01:48.453Z,75.3
2017-09-04T06:02:49.144Z,75.4
2017-09-04T06:03:49.806Z,74.2
2017-09-04T06:04:50.468Z,73.9
2017-09-04T06:05:51.126Z,74.6
2017-09-04T06:06:51.791Z,74.5
2017-09-04T06:07:52.450Z,73.3
2017-09-04T06:08:53.114Z,73.7
2017-09-04T06:09:53.776Z,74.0
2017-09-04T06:10:54.436Z,73.7
2017-09-04T06:11:55.097Z,73.5
2017-09-04T06:12:55.754Z,73.4
2017-09-04T06:13:56.417Z,73.5
2017-09-04T06:14:57.081Z,73.4
2017-09-04T06:15:57.751Z,73.5
2017-09-04T06:16:58.432Z,73.3
2017-09-04T06:17:59.097Z,73.7
2017-09-04T06:18:59.752Z,74.3
2017-09-04T06:20:00.421Z,73.4
2017-09-04T06:21:01.086Z,73.6
2017-09-04T06:22:01.750Z,73.6
2017-09-04T06:23:02.440Z,73.1
2017-09-04T06:24:03.134Z,73.1
2017-09-04T06:25:03.794Z,72.0
2017-09-04T06:26:04.456Z,71.8
2017-09-04T06:27:05.114Z,72.2
2017-09-04T06:28:05.778Z,72.4
2017-09-04T06:29:06.442Z,71.3
2017-09-04T06:30:07.104Z,71.4
2017-09-04T06:31:07.795Z,70.7
2017-09-04T06:32:08.459Z,70.6
2017-09-04T06:33:09.117Z,70.7
2017-09-04T06:34:09.776Z,70.9
2017-09-04T06:35:10.440Z,71.6
2017-09-04T06:36:11.109Z,72.6
2017-09-04T06:37:11.803Z,72.2
2017-09-04T06:38:12.467Z,72.0
2017-09-04T06:39:13.130Z,72.7
2017-09-04T06:40:13.793Z,72.2
2017-09-04T06:41:14.452Z,71.4
2017-09-04T06:42:15.117Z,70.2
2017-09-04T06:43:15.777Z,70.1
2017-09-04T06:44:16.440Z,70.8
2017-09-04T06:45:17.105Z,70.3
2017-09-04T06:46:17.795Z,69.8
2017-09-04T06:47:18.459Z,69.8
2017-09-04T06:48:19.122Z,69.3
2017-09-04T06:49:19.784Z,70.1
2017-09-04T06:50:20.452Z,71.1
2017-09-04T06:51:21.111Z,70.8
2017-09-04T06:52:21.774Z,70.6
2017-09-04T06:53:22.438Z,70.5
2017-09-04T06:54:23.101Z,70.5
2017-09-04T06:55:23.766Z,70.9
2017-09-04T06:56:24.433Z,70.5
2017-09-04T06:57:25.094Z,70.4
2017-09-04T06:58:25.747Z,71.6
2017-09-04T06:59:26.417Z,71.4
2017-09-04T07:00:27.081Z,71.4
2017-09-04T07:01:27.752Z,70.7
2017-09-04T07:02:28.439Z,71.1
2017-09-04T07:03:29.105Z,71.5
2017-09-04T07:04:29.764Z,71.2
2017-09-04T07:05:30.431Z,70.6
2017-09-04T07:06:31.119Z,70.7
2017-09-04T07:07:31.785Z,71.1
2017-09-04T07:08:32.449Z,70.7
2017-09-04T07:09:33.115Z,70.6
2017-09-04T07:10:33.814Z,69.5
2017-09-04T07:11:34.473Z,69.4
2017-09-04T07:12:35.134Z,69.7
2017-09-04T07:13:35.830Z,69.4
2017-09-04T07:14:36.495Z,68.7
2017-09-04T07:15:37.161Z,67.4
2017-09-04T07:16:37.822Z,67.8
2017-09-04T07:17:38.485Z,67.8
2017-09-04T07:18:39.150Z,66.9
2017-09-04T07:19:39.840Z,66.5
2017-09-04T07:20:40.505Z,66.6
2017-09-04T07:21:41.167Z,67.6
2017-09-04T07:22:41.834Z,67.0
2017-09-04T07:23:42.496Z,68.0
2017-09-04T07:24:43.156Z,68.2
2017-09-04T07:25:43.820Z,67.6
2017-09-04T07:26:44.487Z,68.0
2017-09-04T07:27:45.150Z,66.6
2017-09-04T07:28:45.816Z,66.5
2017-09-04T07:29:46.510Z,67.4
2017-09-04T07:30:47.205Z,66.5
2017-09-04T07:31:47.871Z,65.7
2017-09-04T07:32:48.566Z,66.0
2017-09-04T07:33:49.229Z,66.5
2017-09-04T07:34:49.894Z,65.8
2017-09-04T07:35:50.558Z,65.2
2017-09-04T07:36:51.224Z,64.6
2017-09-04T07:37:51.889Z,64.4
2017-09-04T07:38:52.551Z,65.1
2017-09-04T07:39:53.212Z,65.5
2017-09-04T07:40:53.880Z,65.5
2017-09-04T07:41:54.545Z,66.1
2017-09-04T07:42:55.215Z,64.5
2017-09-04T07:43:55.877Z,65.2
2017-09-04T07:44:56.583Z,64.4
2017-09-04T07:45:57.248Z,63.6
2017-09-04T07:46:57.941Z,63.3
2017-09-04T07:47:58.608Z,63.7
2017-09-04T07:48:59.274Z,64.5
2017-09-04T07:49:59.935Z,64.3
2017-09-04T07:51:00.607Z,63.6
2017-09-04T07:52:01.309Z,64.4
2017-09-04T07:53:02.002Z,64.3
2017-09-04T07:54:02.671Z,64.5
2017-09-04T07:55:03.339Z,65.2
2017-09-04T07:56:04.006Z,64.8
2017-09-04T07:57:04.674Z,65.0
2017-09-04T07:58:05.338Z,64.7
2017-09-04T07:59:06.006Z,64.8
2017-09-04T08:00:06.673Z,64.8
2017-09-04T08:01:07.342Z,63.8
2017-09-04T08:02:08.007Z,64.8
2017-09-04T08:03:08.676Z,64.3
2017-09-04T08:04:09.341Z,65.6
2017-09-04T08:05:10.009Z,64.9
2017-09-04T08:06:10.704Z,64.7
2017-09-04T08:07:11.380Z,64.6
2017-09-04T08:08:12.036Z,63.7
2017-09-04T08:09:12.707Z,63.8
2017-09-04T08:10:13.371Z,64.4
2017-09-04T08:11:14.037Z,64.4
2017-09-04T08:12:14.703Z,65.0
2017-09-04T08:13:15.373Z,64.1
2017-09-04T08:14:16.036Z,64.0
2017-09-04T08:15:16.727Z,63.7
2017-09-04T08:16:17.395Z,64.9
2017-09-04T08:17:18.060Z,64.3
2017-09-04T08:18:18.729Z,64.2
2017-09-04T08:19:19.396Z,64.5
2017-09-04T08:20:20.063Z,63.5
2017-09-04T08:21:20.755Z,64.0
2017-09-04T08:22:21.425Z,63.0
2017-09-04T08:23:22.094Z,62.9
2017-09-04T08:24:22.750Z,63.7
2017-09-04T08:25:23.422Z,64.9
2017-09-04T08:26:24.089Z,65.4
2017-09-04T08:27:24.749Z,65.8
2017-09-04T08:28:25.423Z,65.5
2017-09-04T08:29:26.090Z,65.9
2017-09-04T08:30:26.788Z,66.4
2017-09-04T08:31:27.458Z,64.9
2017-09-04T08:32:28.152Z,64.4
2017-09-04T08:33:28.820Z,64.9
2017-09-04T08:34:29.486Z,65.9
2017-09-04T08:35:30.154Z,66.0
2017-09-04T08:36:30.821Z,66.3
2017-09-04T08:37:31.488Z,67.0
2017-09-04T08:38:32.149Z,66.8
2017-09-04T08:39:32.818Z,66.6
2017-09-04T08:40:33.503Z,65.8
2017-09-04T08:41:34.160Z,66.1
2017-09-04T08:42:34.824Z,66.0
2017-09-04T08:43:35.492Z,65.7
2017-09-04T08:44:36.160Z,66.6
2017-09-04T08:45:36.828Z,66.5
2017-09-04T08:46:37.521Z,67.9
2017-09-04T08:47:38.189Z,67.4
2017-09-04T08:48:38.849Z,67.6
2017-09-04T08:49:39.520Z,67.4
2017-09-04T08:50:40.183Z,69.0
2017-09-04T08:51:40.857Z,69.0
2017-09-04T08:52:41.515Z,68.3
2017-09-04T08:53:42.182Z,69.2
2017-09-04T08:54:42.845Z,69.0
2017-09-04T08:55:43.507Z,69.0
2017-09-04T08:56:44.174Z,69.2
2017-09-04T08:57:44.845Z,69.0
2017-09-04T08:58:45.536Z,68.7
2017-09-04T08:59:46.202Z,69.2
2017-09-04T09:00:46.875Z,68.8
2017-09-04T09:01:47.532Z,69.4
2017-09-04T09:02:48.196Z,69.7
2017-09-04T09:03:48.865Z,70.1
2017-09-04T09:04:49.525Z,69.0
2017-09-04T09:05:50.189Z,69.6
2017-09-04T09:06:50.849Z,69.6
2017-09-04T09:07:51.515Z,69.5
2017-09-04T09:08:52.178Z,69.5
2017-09-04T09:09:52.842Z,69.3
2017-09-04T09:10:53.506Z,69.0
2017-09-04T09:11:54.173Z,69.6
2017-09-04T09:12:54.838Z,70.7
2017-09-04T09:13:55.530Z,70.8
2017-09-04T09:14:56.203Z,70.6
2017-09-04T09:15:56.895Z,69.7
2017-09-04T09:16:57.551Z,70.6
2017-09-04T09:17:58.216Z,71.6
2017-09-04T09:18:58.880Z,70.6
2017-09-04T09:19:59.547Z,70.9
2017-09-04T09:21:00.211Z,71.2
2017-09-04T09:22:00.879Z,70.9
2017-09-04T09:23:01.539Z,71.3
2017-09-04T09:24:02.230Z,71.8
2017-09-04T09:25:02.895Z,71.8
2017-09-04T09:26:03.560Z,71.7
2017-09-04T09:27:04.222Z,71.1
2017-09-04T09:28:04.886Z,70.7
2017-09-04T09:29:05.551Z,71.1
2017-09-04T09:30:06.211Z,72.6
2017-09-04T09:31:06.871Z,72.4
2017-09-04T09:32:07.541Z,71.3
2017-09-04T09:33:08.203Z,70.7
2017-09-04T09:34:08.868Z,69.6
2017-09-04T09:35:09.532Z,69.4
2017-09-04T09:36:10.199Z,69.2
2017-09-04T09:37:10.864Z,69.6
2017-09-04T09:38:11.861Z,69.9
2017-09-04T09:39:12.523Z,69.1
2017-09-04T09:40:13.189Z,70.1
2017-09-04T09:41:13.853Z,69.7
2017-09-04T09:42:14.550Z,68.4
2017-09-04T09:43:15.212Z,69.0
2017-09-04T09:44:15.877Z,69.2
2017-09-04T09:45:16.544Z,68.3
2017-09-04T09:46:17.210Z,67.8
2017-09-04T09:47:17.872Z,67.3
2017-09-04T09:48:18.534Z,66.3
2017-09-04T09:49:19.202Z,64.8
2017-09-04T09:50:19.869Z,65.5
2017-09-04T09:51:20.567Z,64.9
2017-09-04T09:52:21.230Z,65.4
2017-09-04T09:53:21.928Z,64.8
2017-09-04T09:54:22.624Z,64.7
2017-09-04T09:55:23.293Z,64.2
2017-09-04T09:56:23.958Z,64.3
2017-09-04T09:57:24.624Z,64.1
2017-09-04T09:58:25.319Z,64.9
2017-09-04T09:59:25.988Z,64.6
2017-09-04T10:00:26.652Z,65.0
2017-09-04T10:01:27.320Z,65.5
2017-09-04T10:02:28.017Z,64.5
2017-09-04T10:03:28.683Z,64.7
2017-09-04T10:04:29.347Z,64.8
2017-09-04T10:05:30.011Z,64.9
2017-09-04T10:06:30.678Z,65.0
2017-09-04T10:07:31.347Z,64.1
2017-09-04T10:08:32.016Z,63.1
2017-09-04T10:09:32.681Z,62.6
2017-09-04T10:10:33.348Z,62.4
2017-09-04T10:11:34.015Z,61.8
2017-09-04T10:12:34.683Z,62.2
2017-09-04T10:13:35.355Z,61.7
2017-09-04T10:14:36.021Z,61.8
2017-09-04T10:15:36.688Z,60.6
2017-09-04T10:16:37.359Z,59.7
2017-09-04T10:17:38.023Z,60.6
2017-09-04T10:18:38.690Z,61.3
2017-09-04T10:19:39.362Z,59.9
2017-09-04T10:20:40.028Z,59.4
2017-09-04T10:21:40.693Z,60.3
2017-09-04T10:22:41.365Z,60.0
2017-09-04T10:23:42.027Z,60.0
2017-09-04T10:24:42.699Z,61.0
2017-09-04T10:25:43.365Z,60.7
2017-09-04T10:26:44.038Z,59.3
2017-09-04T10:27:44.705Z,58.9
2017-09-04T10:28:45.376Z,58.9
2017-09-04T10:29:46.076Z,58.9
2017-09-04T10:30:46.749Z,59.6
2017-09-04T10:31:47.445Z,61.1
2017-09-04T10:32:48.115Z,61.9
2017-09-04T10:33:48.811Z,61.6
2017-09-04T10:34:49.482Z,61.9
2017-09-04T10:35:50.150Z,61.0
2017-09-04T10:36:50.822Z,62.8
2017-09-04T10:37:51.491Z,61.6
2017-09-04T10:38:52.191Z,60.1
2017-09-04T10:39:52.858Z,60.0
2017-09-04T10:40:53.531Z,61.7
2017-09-04T10:41:54.193Z,61.3
2017-09-04T10:42:54.860Z,60.7
2017-09-04T10:43:55.532Z,60.7
2017-09-04T10:44:56.198Z,60.5
2017-09-04T10:45:56.867Z,59.9
2017-09-04T10:46:57.534Z,60.9
2017-09-04T10:47:58.233Z,62.0
2017-09-04T10:48:58.898Z,62.9
2017-09-04T10:49:59.567Z,63.2
2017-09-04T10:51:00.232Z,63.3
2017-09-04T10:52:00.902Z,62.9
2017-09-04T10:53:01.569Z,63.3
2017-09-04T10:54:02.235Z,63.3
2017-09-04T10:55:02.906Z,63.2
2017-09-04T10:56:03.574Z,63.8
2017-09-04T10:57:04.240Z,64.1
2017-09-04T10:58:04.909Z,65.2
2017-09-04T10:59:05.577Z,65.7
2017-09-04T11:00:06.243Z,65.1
2017-09-04T11:01:06.908Z,64.7
2017-09-04T11:02:07.574Z,65.7
2017-09-04T11:03:08.237Z,66.2
2017-09-04T11:04:08.905Z,66.1
2017-09-04T11:05:09.570Z,65.9
2017-09-04T11:06:10.235Z,66.0
2017-09-04T11:07:10.902Z,66.3
2017-09-04T11:08:11.564Z,66.6
2017-09-04T11:09:12.232Z,67.9
2017-09-04T11:10:12.896Z,67.9
2017-09-04T11:11:13.561Z,67.6
2017-09-04T11:12:14.226Z,68.9
2017-09-04T11:13:14.888Z,69.6
2017-09-04T11:14:15.554Z,70.3
2017-09-04T11:15:16.222Z,71.3
2017-09-04T11:16:16.919Z,71.5
2017-09-04T11:17:17.581Z,72.6
2017-09-04T11:18:18.255Z,72.0
2017-09-04T11:19:18.939Z,71.8
2017-09-04T11:20:19.602Z,71.4
2017-09-04T11:21:20.265Z,71.5
2017-09-04T11:22:20.928Z,70.5
2017-09-04T11:23:21.592Z,69.7
2017-09-04T11:24:22.258Z,69.7
2017-09-04T11:25:22.922Z,69.8
2017-09-04T11:26:23.589Z,69.3
2017-09-04T11:27:24.249Z,69.2
2017-09-04T11:28:24.919Z,68.8
2017-09-04T11:29:25.584Z,69.1
2017-09-04T11:30:26.247Z,68.7
2017-09-04T11:31:26.943Z,67.8
2017-09-04T11:32:27.609Z,67.4
2017-09-04T11:33:28.272Z,67.5
2017-09-04T11:34:28.938Z,67.0
2017-09-04T11:35:29.600Z,66.7
2017-09-04T11:36:30.263Z,67.3
2017-09-04T11:37:30.931Z,67.7
2017-09-04T11:38:31.595Z,68.2
2017-09-04T11:39:32.258Z,67.3
2017-09-04T11:40:32.921Z,67.5
2017-09-04T11:41:33.620Z,67.0
2017-09-04T11:42:34.286Z,66.2
2017-09-04T11:43:34.952Z,65.5
2017-09-04T11:44:35.619Z,64.9
2017-09-04T11:45:36.286Z,64.2
2017-09-04T11:46:36.948Z,64.1
2017-09-04T11:47:37.617Z,64.1
2017-09-04T11:48:38.281Z,64.6
2017-09-04T11:49:38.950Z,64.5
2017-09-04T11:50:39.617Z,64.7
2017-09-04T11:51:40.282Z,65.1
2017-09-04T11:52:40.949Z,65.6
2017-09-04T11:53:41.612Z,63.8
2017-09-04T11:54:42.284Z,64.0
2017-09-04T11:55:42.943Z,64.0
2017-09-04T11:56:43.612Z,64.2
2017-09-04T11:57:44.273Z,66.2
2017-09-04T11:58:44.940Z,66.6
2017-09-04T11:59:45.607Z,66.8
2017-09-04T12:00:46.302Z,66.4
2017-09-04T12:01:46.968Z,66.5
2017-09-04T12:02:47.631Z,66.5
2017-09-04T12:03:48.301Z,66.7
2017-09-04T12:04:48.964Z,67.0
2017-09-04T12:05:49.632Z,68.0
2017-09-04T12:06:50.297Z,67.9
2017-09-04T12:07:50.957Z,68.3
2017-09-04T12:08:51.624Z,67.9
2017-09-04T12:09:52.285Z,69.4
2017-09-04T12:10:52.947Z,68.8
2017-09-04T12:11:53.612Z,68.7
2017-09-04T12:12:54.277Z,68.6
2017-09-04T12:13:54.943Z,69.1
2017-09-04T12:14:55.604Z,69.5
2017-09-04T12:15:56.270Z,70.1
2017-09-04T12:16:56.931Z,70.7
2017-09-04T12:17:57.595Z,72.5
2017-09-04T12:18:58.256Z,76.3
2017-09-04T12:19:58.959Z,77.0
2017-09-04T12:20:59.622Z,78.9
2017-09-04T12:22:00.288Z,80.2
2017-09-04T12:23:00.979Z,82.5
2017-09-04T12:24:01.646Z,82.6
2017-09-04T12:25:02.308Z,82.9
2017-09-04T12:26:02.976Z,85.1
2017-09-04T12:27:03.638Z,82.7
2017-09-04T12:28:04.296Z,81.9
2017-09-04T12:29:04.957Z,81.8
2017-09-04T12:30:05.621Z,83.6
2017-09-04T12:31:06.284Z,85.0
2017-09-04T12:32:06.946Z,85.8
2017-09-04T12:33:07.611Z,86.3
2017-09-04T12:34:08.271Z,86.7
2017-09-04T12:35:08.937Z,87.6
2017-09-04T12:36:09.596Z,87.3
2017-09-04T12:37:10.261Z,88.0
2017-09-04T12:38:10.927Z,88.2
2017-09-04T12:39:11.585Z,87.6
2017-09-04T12:40:12.248Z,86.5
2017-09-04T12:41:12.940Z,87.2
2017-09-04T12:42:13.601Z,86.6
2017-09-04T12:43:14.266Z,87.3
2017-09-04T12:44:14.927Z,87.2
2017-09-04T12:45:15.586Z,87.1
2017-09-04T12:46:16.253Z,88.7
2017-09-04T12:47:16.940Z,88.3
2017-09-04T12:48:17.595Z,88.5
2017-09-04T12:49:18.254Z,88.7
2017-09-04T12:50:18.920Z,88.9
2017-09-04T12:51:19.581Z,89.0
2017-09-04T12:52:20.247Z,89.7
2017-09-04T12:53:20.900Z,90.2
2017-09-04T12:54:21.562Z,91.3
2017-09-04T12:55:22.222Z,90.0
2017-09-04T12:56:22.882Z,89.5
2017-09-04T12:57:23.543Z,89.6
2017-09-04T12:58:24.204Z,89.0
2017-09-04T12:59:24.864Z,88.8
2017-09-04T13:00:25.551Z,89.5
2017-09-04T13:01:26.183Z,88.3
2017-09-04T13:02:26.874Z,87.2
2017-09-04T13:03:27.533Z,86.2
2017-09-04T13:04:28.190Z,86.3
2017-09-04T13:05:28.852Z,85.2
2017-09-04T13:06:29.511Z,85.8
2017-09-04T13:07:30.174Z,86.5
2017-09-04T13:08:30.833Z,86.2
2017-09-04T13:09:31.491Z,84.9
2017-09-04T13:10:32.150Z,85.0
2017-09-04T13:11:32.812Z,84.9
2017-09-04T13:12:33.474Z,85.0
2017-09-04T13:13:34.133Z,85.0
2017-09-04T13:14:34.794Z,85.7
2017-09-04T13:15:35.450Z,84.9
2017-09-04T13:16:36.111Z,85.7
2017-09-04T13:17:36.773Z,84.8
2017-09-04T13:18:37.431Z,85.4
2017-09-04T13:19:38.093Z,85.7
2017-09-04T13:20:38.749Z,85.2
2017-09-04T13:21:39.413Z,86.1
2017-09-04T13:22:40.073Z,83.8
2017-09-04T13:23:40.732Z,83.5
2017-09-04T13:24:41.393Z,83.3
2017-09-04T13:25:42.057Z,83.9
2017-09-04T13:26:42.720Z,83.5
2017-09-04T13:27:43.379Z,83.4